createdAt,value
2017-10-05T00:02:17.210Z,91.70
2017-10-05T00:04:43.489Z,91.80
2017-10-05T00:07:09.823Z,92.10
2017-10-05T00:09:36.189Z,92.20
2017-10-05T00:12:02.592Z,92.10
2017-10-05T00:14:28.892Z,91.90
2017-10-05T00:16:55.245Z,92.30
2017-10-05T00:19:21.587Z,92.40
2017-10-05T00:21:48.640Z,92.90
2017-10-05T00:24:15.691Z,92.40
2017-10-05T00:26:42.720Z,92.20
2017-10-05T00:29:09.056Z,92.20
2017-10-05T00:31:35.370Z,92.70
2017-10-05T00:34:01.721Z,92.30
2017-10-05T00:36:28.814Z,92.60
2017-10-05T00:38:55.104Z,92.60
2017-10-05T00:41:22.139Z,92.60
2017-10-05T00:43:48.431Z,92.50
2017-10-05T00:46:14.755Z,92.40
2017-10-05T00:48:41.085Z,92.50
2017-10-05T00:51:07.443Z,92.60
2017-10-05T00:53:33.755Z,92.30
2017-10-05T00:56:00.050Z,92.50
2017-10-05T00:58:26.360Z,92.80
2017-10-05T01:00:53.405Z,93.00
2017-10-05T01:03:20.435Z,92.90
2017-10-05T01:05:46.731Z,92.60
2017-10-05T01:08:13.084Z,92.70
2017-10-05T01:10:39.392Z,92.90
2017-10-05T01:13:05.679Z,93.00
2017-10-05T01:15:31.984Z,92.90
2017-10-05T01:17:58.292Z,93.10
2017-10-05T01:20:24.627Z,93.00
2017-10-05T01:22:51.009Z,93.00
2017-10-05T01:25:18.080Z,93.10
2017-10-05T01:27:44.379Z,93.10
2017-10-05T01:30:11.397Z,93.20
2017-10-05T01:32:37.700Z,93.10
2017-10-05T01:35:03.981Z,93.30
2017-10-05T01:37:31.052Z,93.30
2017-10-05T01:39:57.354Z,93.30
2017-10-05T01:42:24.420Z,93.30
2017-10-05T01:44:51.586Z,93.30
2017-10-05T01:47:17.851Z,93.30
2017-10-05T01:49:44.154Z,93.10
2017-10-05T01:52:10.424Z,93.50
2017-10-05T01:54:38.283Z,94.30
2017-10-05T01:57:04.639Z,94.30
2017-10-05T01:59:31.823Z,94.50
2017-10-05T02:01:58.136Z,94.50
2017-10-05T02:04:25.159Z,94.50
2017-10-05T02:06:52.996Z,95.00
2017-10-05T02:09:19.507Z,95.00
2017-10-05T02:11:45.856Z,95.30
2017-10-05T02:14:12.152Z,94.60
2017-10-05T02:16:38.503Z,94.50
2017-10-05T02:19:04.848Z,94.10
2017-10-05T02:21:31.138Z,94.40
2017-10-05T02:23:57.468Z,94.80
2017-10-05T02:26:23.803Z,94.50
2017-10-05T02:28:50.071Z,94.50
2017-10-05T02:31:16.391Z,95.00
2017-10-05T02:33:42.678Z,94.70
2017-10-05T02:36:09.744Z,95.00
2017-10-05T02:38:36.096Z,94.90
2017-10-05T02:41:02.422Z,95.30
2017-10-05T02:43:28.708Z,95.00
2017-10-05T02:45:55.759Z,95.00
2017-10-05T02:48:22.811Z,95.00
2017-10-05T02:50:49.860Z,94.90
2017-10-05T02:53:16.901Z,95.40
2017-10-05T02:55:43.940Z,95.20
2017-10-05T02:58:10.975Z,95.00
2017-10-05T03:00:37.290Z,95.00
2017-10-05T03:03:03.624Z,94.70
2017-10-05T03:05:29.919Z,95.00
2017-10-05T03:07:56.250Z,95.10
2017-10-05T03:10:22.547Z,95.30
2017-10-05T03:12:49.597Z,95.10
2017-10-05T03:15:16.683Z,95.20
2017-10-05T03:17:43.076Z,95.20
2017-10-05T03:20:10.153Z,94.90
2017-10-05T03:22:36.423Z,94.90
2017-10-05T03:25:02.738Z,94.90
2017-10-05T03:27:29.059Z,94.80
2017-10-05T03:29:55.360Z,95.00
2017-10-05T03:32:21.681Z,95.10
2017-10-05T03:34:47.986Z,95.10
2017-10-05T03:37:15.049Z,94.60
2017-10-05T03:39:42.076Z,94.70
2017-10-05T03:42:09.185Z,95.10
2017-10-05T03:44:35.453Z,95.10
2017-10-05T03:47:01.731Z,95.40
2017-10-05T03:49:28.042Z,95.10
2017-10-05T03:51:54.366Z,95.60
2017-10-05T03:54:21.406Z,95.20
2017-10-05T03:56:48.412Z,95.60
2017-10-05T03:59:14.701Z,95.50
2017-10-05T04:01:41.037Z,95.80
2017-10-05T04:04:07.336Z,95.60
2017-10-05T04:06:34.388Z,95.30
2017-10-05T04:09:01.444Z,95.50
2017-10-05T04:11:28.488Z,94.90
2017-10-05T04:13:55.511Z,95.40
2017-10-05T04:16:21.815Z,95.40
2017-10-05T04:18:48.131Z,95.60
2017-10-05T04:21:14.434Z,96.00
2017-10-05T04:23:40.745Z,96.10
2017-10-05T04:26:07.797Z,96.10
2017-10-05T04:28:34.896Z,96.30
2017-10-05T04:31:01.268Z,96.30
2017-10-05T04:33:28.347Z,96.90
2017-10-05T04:35:54.647Z,96.90
2017-10-05T04:38:21.720Z,97.20
2017-10-05T04:40:48.022Z,97.10
2017-10-05T04:43:15.060Z,96.60
2017-10-05T04:45:42.124Z,96.30
2017-10-05T04:48:09.292Z,96.60
2017-10-05T04:50:35.705Z,96.60
2017-10-05T04:53:02.275Z,96.30
2017-10-05T04:55:28.680Z,96.60
2017-10-05T04:57:55.713Z,97.60
2017-10-05T05:00:22.747Z,97.40
2017-10-05T05:02:49.060Z,97.20
2017-10-05T05:05:15.495Z,97.40
2017-10-05T05:07:41.842Z,97.20
2017-10-05T05:10:08.671Z,97.30
2017-10-05T05:12:35.000Z,97.20
2017-10-05T05:15:01.340Z,97.00
2017-10-05T05:17:27.664Z,97.40
2017-10-05T05:19:53.962Z,97.20
2017-10-05T05:22:20.259Z,96.80
2017-10-05T05:24:50.161Z,97.20
2017-10-05T05:27:16.566Z,97.20
2017-10-05T05:29:42.915Z,97.00
2017-10-05T05:32:12.226Z,96.90
2017-10-05T05:34:39.399Z,97.10
2017-10-05T05:37:05.700Z,97.10
2017-10-05T05:39:32.747Z,96.70
2017-10-05T05:41:59.080Z,96.70
2017-10-05T05:44:26.124Z,96.30
2017-10-05T05:46:52.412Z,96.30
2017-10-05T05:49:18.733Z,96.30
2017-10-05T05:51:45.005Z,96.00
2017-10-05T05:54:11.318Z,95.90
2017-10-05T05:56:37.602Z,96.00
2017-10-05T05:59:03.948Z,95.50
2017-10-05T06:01:30.248Z,95.40
2017-10-05T06:03:57.376Z,94.70
2017-10-05T06:06:23.693Z,94.60
2017-10-05T06:08:50.013Z,94.40
2017-10-05T06:11:16.396Z,93.60
2017-10-05T06:13:43.444Z,92.60
2017-10-05T06:16:09.943Z,92.60
2017-10-05T06:18:36.249Z,91.50
2017-10-05T06:21:02.560Z,86.00
2017-10-05T06:23:28.876Z,79.40
2017-10-05T06:25:55.227Z,75.20
2017-10-05T06:28:22.212Z,68.60
2017-10-05T06:30:48.510Z,60.50
2017-10-05T06:33:14.813Z,54.80
2017-10-05T06:35:41.131Z,50.50
2017-10-05T06:38:08.151Z,45.40
2017-10-05T06:40:34.463Z,45.30
2017-10-05T06:43:01.716Z,43.80
2017-10-05T06:45:28.382Z,44.60
2017-10-05T06:47:55.419Z,48.40
2017-10-05T06:50:22.047Z,48.40
2017-10-05T06:52:48.355Z,49.40
2017-10-05T06:55:14.702Z,50.30
2017-10-05T06:57:41.010Z,51.90
2017-10-05T07:00:08.345Z,56.60
2017-10-05T07:02:34.715Z,55.90
2017-10-05T07:05:01.103Z,57.40
2017-10-05T07:07:27.381Z,57.50
2017-10-05T07:09:53.668Z,55.60
2017-10-05T07:12:19.958Z,52.80
2017-10-05T07:14:46.980Z,53.40
2017-10-05T07:17:13.288Z,53.30
2017-10-05T07:19:39.624Z,55.00
2017-10-05T07:22:05.904Z,56.50
2017-10-05T07:24:32.948Z,59.40
2017-10-05T07:26:59.996Z,61.20
2017-10-05T07:29:27.144Z,62.40
2017-10-05T07:31:54.163Z,64.40
2017-10-05T07:34:20.472Z,64.30
2017-10-05T07:36:46.904Z,65.00
2017-10-05T07:39:13.284Z,64.20
2017-10-05T07:41:40.344Z,62.10
2017-10-05T07:44:07.376Z,59.30
2017-10-05T07:46:34.408Z,60.00
2017-10-05T07:49:01.565Z,59.60
2017-10-05T07:51:27.880Z,59.50
2017-10-05T07:53:54.205Z,59.40
2017-10-05T07:56:20.526Z,59.70
2017-10-05T07:58:46.850Z,59.40
2017-10-05T08:01:13.144Z,59.20
2017-10-05T08:03:39.410Z,56.80
2017-10-05T08:06:05.778Z,57.10
2017-10-05T08:08:32.084Z,55.20
2017-10-05T08:10:58.399Z,54.20
2017-10-05T08:13:24.697Z,51.40
2017-10-05T08:15:51.109Z,48.90
2017-10-05T08:18:18.260Z,47.10
2017-10-05T08:20:45.351Z,46.70
2017-10-05T08:23:11.685Z,46.60
2017-10-05T08:25:38.136Z,45.80
2017-10-05T08:28:04.508Z,46.20
2017-10-05T08:30:31.644Z,47.30
2017-10-05T08:32:57.936Z,47.20
2017-10-05T08:35:24.213Z,47.40
2017-10-05T08:37:50.527Z,45.90
2017-10-05T08:40:17.575Z,44.80
2017-10-05T08:42:44.640Z,45.90
2017-10-05T08:45:11.716Z,46.20
2017-10-05T08:47:38.003Z,46.10
2017-10-05T08:50:04.317Z,44.90
2017-10-05T08:52:30.627Z,46.30
2017-10-05T08:54:57.048Z,46.90
2017-10-05T08:57:23.505Z,47.50
2017-10-05T08:59:49.838Z,49.00
2017-10-05T09:02:16.138Z,49.30
2017-10-05T09:04:42.457Z,48.90
2017-10-05T09:07:08.723Z,49.60
2017-10-05T09:09:35.020Z,51.00
2017-10-05T09:12:01.424Z,52.00
2017-10-05T09:14:28.443Z,53.20
2017-10-05T09:16:54.733Z,53.10
2017-10-05T09:19:21.054Z,53.30
2017-10-05T09:21:47.389Z,54.00
2017-10-05T09:24:13.685Z,54.00
2017-10-05T09:26:40.732Z,57.00
2017-10-05T09:29:07.787Z,58.20
2017-10-05T09:31:34.812Z,58.30
2017-10-05T09:34:01.115Z,58.30
2017-10-05T09:36:27.476Z,59.30
2017-10-05T09:38:53.856Z,60.40
2017-10-05T09:41:20.183Z,60.60
2017-10-05T09:43:46.489Z,61.20
2017-10-05T09:46:12.844Z,61.20
2017-10-05T09:48:39.144Z,61.50
2017-10-05T09:51:06.209Z,61.80
2017-10-05T09:53:32.499Z,61.70
2017-10-05T09:55:58.781Z,62.20
2017-10-05T09:58:25.107Z,63.40
2017-10-05T10:00:51.460Z,62.80
2017-10-05T10:03:17.764Z,63.60
2017-10-05T10:05:44.049Z,63.90
2017-10-05T10:08:11.908Z,65.00
2017-10-05T10:10:38.220Z,64.90
2017-10-05T10:13:04.528Z,65.90
2017-10-05T10:15:30.856Z,65.80
2017-10-05T10:17:57.260Z,66.20
2017-10-05T10:20:24.327Z,67.30
2017-10-05T10:22:50.628Z,67.20
2017-10-05T10:25:17.694Z,68.10
2017-10-05T10:27:44.020Z,68.10
2017-10-05T10:30:11.077Z,69.70
2017-10-05T10:32:37.351Z,69.70
2017-10-05T10:35:03.656Z,69.40
2017-10-05T10:37:29.986Z,70.70
2017-10-05T10:39:56.275Z,75.00
2017-10-05T10:42:23.288Z,79.20
2017-10-05T10:44:49.615Z,79.20
2017-10-05T10:47:15.937Z,80.70
2017-10-05T10:49:42.217Z,81.50
2017-10-05T10:52:09.307Z,83.80
2017-10-05T10:54:35.736Z,83.80
2017-10-05T10:57:02.046Z,85.40
2017-10-05T10:59:28.408Z,86.00
2017-10-05T11:01:54.740Z,86.50
2017-10-05T11:04:21.025Z,87.10
2017-10-05T11:06:48.199Z,87.60
2017-10-05T11:09:14.547Z,87.60
2017-10-05T11:11:40.859Z,88.80
2017-10-05T11:14:07.171Z,90.00
2017-10-05T11:16:33.469Z,90.10
2017-10-05T11:18:59.835Z,90.20
2017-10-05T11:21:26.162Z,90.10
2017-10-05T11:23:52.481Z,90.20
2017-10-05T11:26:19.506Z,90.30
2017-10-05T11:28:47.291Z,90.00
2017-10-05T11:31:15.148Z,89.40
2017-10-05T11:33:42.192Z,88.80
2017-10-05T11:36:09.256Z,88.40
2017-10-05T11:38:36.292Z,87.30
2017-10-05T11:41:10.361Z,86.90
2017-10-05T11:43:36.699Z,86.90
2017-10-05T11:46:03.076Z,87.70
2017-10-05T11:48:29.386Z,87.00
2017-10-05T11:50:55.768Z,87.80
2017-10-05T11:53:22.060Z,88.40
2017-10-05T11:55:49.168Z,86.80
2017-10-05T11:58:15.543Z,86.80
2017-10-05T12:00:42.575Z,88.20
2017-10-05T12:03:08.864Z,88.20
2017-10-05T12:05:35.227Z,88.10
2017-10-05T12:08:01.568Z,88.70
2017-10-05T12:10:28.677Z,89.10
2017-10-05T12:12:54.969Z,89.10
2017-10-05T12:15:21.298Z,89.30
2017-10-05T12:17:47.584Z,89.60
2017-10-05T12:20:13.944Z,89.50
2017-10-05T12:22:40.988Z,90.10
2017-10-05T12:25:08.019Z,90.10
2017-10-05T12:27:34.400Z,90.20
2017-10-05T12:30:00.738Z,90.30
2017-10-05T12:32:27.064Z,90.50
2017-10-05T12:34:53.352Z,90.50
2017-10-05T12:37:19.673Z,90.40
2017-10-05T12:39:47.512Z,90.40
2017-10-05T12:42:13.856Z,90.30
2017-10-05T12:44:40.184Z,90.50
2017-10-05T12:47:06.484Z,90.40
2017-10-05T12:49:32.781Z,90.20
2017-10-05T12:51:59.849Z,90.00
2017-10-05T12:54:26.133Z,90.00
2017-10-05T12:56:53.785Z,90.00
2017-10-05T12:59:20.099Z,89.20
2017-10-05T13:01:46.409Z,88.50
2017-10-05T13:04:12.739Z,89.30
2017-10-05T13:06:40.367Z,88.80
2017-10-05T13:09:07.455Z,89.20
2017-10-05T13:11:33.756Z,89.10
2017-10-05T13:14:00.827Z,90.10
2017-10-05T13:16:27.120Z,90.10
2017-10-05T13:18:53.474Z,90.30
2017-10-05T13:21:19.816Z,90.50
2017-10-05T13:23:46.092Z,90.90
2017-10-05T13:26:12.798Z,90.70
2017-10-05T13:28:39.088Z,90.70
2017-10-05T13:31:06.145Z,90.80
2017-10-05T13:33:32.483Z,90.80
2017-10-05T13:35:59.626Z,91.00
2017-10-05T13:38:26.691Z,91.30
2017-10-05T13:40:52.996Z,91.20
2017-10-05T13:43:19.377Z,91.00
2017-10-05T13:45:45.697Z,90.70
2017-10-05T13:48:12.023Z,91.20
2017-10-05T13:50:38.352Z,91.50
2017-10-05T13:53:04.672Z,91.00
2017-10-05T13:55:30.945Z,91.20
2017-10-05T13:57:57.302Z,90.60
2017-10-05T14:00:24.347Z,89.50
2017-10-05T14:02:51.402Z,88.40
2017-10-05T14:05:18.427Z,87.60
2017-10-05T14:07:45.501Z,86.80
2017-10-05T14:10:11.805Z,86.60
2017-10-05T14:12:38.898Z,85.30
2017-10-05T14:15:05.215Z,85.20
2017-10-05T14:17:31.516Z,86.70
2017-10-05T14:19:58.596Z,88.50
2017-10-05T14:22:24.903Z,87.70
2017-10-05T14:24:51.955Z,88.80
2017-10-05T14:27:19.064Z,89.40
2017-10-05T14:29:45.484Z,89.30
2017-10-05T14:32:11.796Z,89.10
2017-10-05T14:34:38.125Z,88.10
2017-10-05T14:37:04.396Z,88.00
2017-10-05T14:39:30.683Z,87.60
2017-10-05T14:41:57.004Z,87.20
2017-10-05T14:44:23.384Z,88.10
2017-10-05T14:46:49.735Z,88.80
2017-10-05T14:49:16.815Z,88.90
2017-10-05T14:51:43.124Z,88.20
2017-10-05T14:54:10.172Z,87.30
2017-10-05T14:56:37.190Z,87.70
2017-10-05T14:59:04.242Z,88.40
2017-10-05T15:01:30.533Z,88.40
2017-10-05T15:03:57.520Z,88.60
2017-10-05T15:06:24.655Z,90.10
2017-10-05T15:08:50.968Z,89.40
2017-10-05T15:11:17.302Z,89.40
2017-10-05T15:13:43.634Z,89.50
2017-10-05T15:16:09.956Z,90.00
2017-10-05T15:18:36.248Z,90.00
2017-10-05T15:21:03.373Z,90.50
2017-10-05T15:23:30.383Z,90.60
2017-10-05T15:25:56.678Z,90.30
2017-10-05T15:28:25.899Z,90.00
2017-10-05T15:30:52.235Z,89.30
2017-10-05T15:33:18.549Z,89.30
2017-10-05T15:35:44.876Z,87.90
2017-10-05T15:38:11.168Z,87.30
2017-10-05T15:40:37.500Z,87.10
2017-10-05T15:43:03.807Z,85.00
2017-10-05T15:45:30.308Z,83.60
2017-10-05T15:47:56.621Z,83.70
2017-10-05T15:50:22.917Z,84.10
2017-10-05T15:52:49.270Z,83.70
2017-10-05T15:55:16.328Z,85.50
2017-10-05T15:57:42.803Z,85.50
2017-10-05T16:00:09.209Z,84.80
2017-10-05T16:02:35.584Z,84.20
2017-10-05T16:05:02.098Z,82.50
2017-10-05T16:07:28.405Z,81.40
2017-10-05T16:09:54.706Z,81.70
2017-10-05T16:12:21.888Z,84.00
2017-10-05T16:14:48.320Z,84.00
2017-10-05T16:17:14.746Z,82.40
2017-10-05T16:19:41.179Z,81.50
2017-10-05T16:22:07.524Z,81.40
2017-10-05T16:24:33.839Z,81.80
2017-10-05T16:27:00.229Z,81.30
2017-10-05T16:29:27.357Z,83.10
2017-10-05T16:31:53.696Z,82.90
2017-10-05T16:34:20.098Z,83.70
2017-10-05T16:36:46.433Z,83.60
2017-10-05T16:39:12.778Z,84.10
2017-10-05T16:41:39.060Z,84.80
2017-10-05T16:44:05.548Z,85.70
2017-10-05T16:46:31.872Z,85.90
2017-10-05T16:49:02.121Z,84.80
2017-10-05T16:51:30.231Z,86.30
2017-10-05T16:53:58.327Z,86.70
2017-10-05T16:56:24.668Z,86.70
2017-10-05T16:58:50.995Z,85.70
2017-10-05T17:01:18.629Z,86.30
2017-10-05T17:03:46.279Z,87.10
2017-10-05T17:06:12.594Z,87.00
2017-10-05T17:08:39.724Z,88.10
2017-10-05T17:11:06.061Z,88.10
2017-10-05T17:13:32.344Z,89.10
2017-10-05T17:15:58.654Z,89.50
2017-10-05T17:18:24.987Z,90.40
2017-10-05T17:20:51.433Z,90.50
2017-10-05T17:23:18.022Z,90.70
2017-10-05T17:25:45.113Z,91.30
2017-10-05T17:28:11.464Z,91.30
2017-10-05T17:30:37.787Z,91.50
2017-10-05T17:33:04.172Z,91.40
2017-10-05T17:35:31.359Z,91.90
2017-10-05T17:37:57.814Z,91.90
2017-10-05T17:40:24.149Z,92.40
2017-10-05T17:42:50.454Z,92.10
2017-10-05T17:45:16.776Z,92.50
2017-10-05T17:47:46.978Z,92.50
2017-10-05T17:50:14.964Z,92.20
2017-10-05T17:52:41.362Z,92.20
2017-10-05T17:55:08.445Z,92.10
2017-10-05T17:57:34.852Z,92.10
2017-10-05T18:00:01.941Z,92.20
2017-10-05T18:02:28.271Z,92.20
2017-10-05T18:04:54.591Z,92.10
2017-10-05T18:07:20.943Z,91.90
2017-10-05T18:09:47.240Z,91.90
2017-10-05T18:12:13.612Z,91.90
2017-10-05T18:14:39.980Z,92.10
2017-10-05T18:17:07.048Z,91.80
2017-10-05T18:19:33.421Z,91.80
2017-10-05T18:21:59.877Z,91.70
2017-10-05T18:24:26.171Z,91.60
2017-10-05T18:26:52.552Z,91.50
2017-10-05T18:29:19.624Z,91.90
2017-10-05T18:31:46.177Z,91.90
2017-10-05T18:34:12.525Z,92.20
2017-10-05T18:36:38.858Z,92.10
2017-10-05T18:39:05.242Z,92.00
2017-10-05T18:41:31.639Z,91.90
2017-10-05T18:43:57.992Z,91.80
2017-10-05T18:46:25.036Z,91.80
2017-10-05T18:48:52.103Z,91.70
2017-10-05T18:51:18.401Z,91.70
2017-10-05T18:53:45.506Z,92.20
2017-10-05T18:56:11.865Z,92.20
2017-10-05T18:58:38.249Z,92.70
2017-10-05T19:01:04.581Z,93.20
2017-10-05T19:03:30.905Z,93.70
2017-10-05T19:05:57.284Z,93.30
2017-10-05T19:08:23.620Z,93.20
2017-10-05T19:10:49.965Z,93.30
2017-10-05T19:13:16.266Z,93.40
2017-10-05T19:15:42.614Z,94.10
2017-10-05T19:18:08.980Z,93.70
2017-10-05T19:20:35.352Z,94.00
2017-10-05T19:23:01.815Z,94.30
2017-10-05T19:25:28.173Z,94.10
2017-10-05T19:27:55.410Z,94.50
2017-10-05T19:30:22.415Z,94.70
2017-10-05T19:32:48.730Z,94.60
2017-10-05T19:35:15.056Z,95.30
2017-10-05T19:37:41.532Z,96.20
2017-10-05T19:40:07.912Z,96.40
2017-10-05T19:42:34.257Z,96.70
2017-10-05T19:45:00.606Z,96.70
2017-10-05T19:47:26.942Z,96.90
2017-10-05T19:49:53.292Z,96.40
2017-10-05T19:52:19.607Z,96.20
2017-10-05T19:54:45.998Z,95.90
2017-10-05T19:57:12.331Z,96.10
2017-10-05T19:59:38.670Z,96.60
2017-10-05T20:02:05.407Z,97.80
2017-10-05T20:04:32.338Z,98.30
2017-10-05T20:06:59.079Z,98.60
2017-10-05T20:09:25.818Z,98.60
2017-10-05T20:11:52.483Z,98.70
2017-10-05T20:14:26.159Z,99.60
2017-10-05T20:16:58.840Z,99.10
2017-10-05T20:19:31.512Z,99.40
2017-10-05T20:22:04.210Z,99.80
2017-10-05T20:24:30.698Z,99.90
2017-10-05T20:27:02.830Z,99.90
2017-10-05T20:29:29.177Z,99.90
2017-10-05T20:32:01.365Z,99.90
2017-10-05T20:34:27.978Z,99.90
2017-10-05T20:37:01.410Z,99.90
2017-10-05T20:39:28.487Z,99.90
2017-10-05T20:41:54.805Z,99.90
2017-10-05T20:44:21.220Z,99.90
2017-10-05T20:46:49.679Z,99.90
2017-10-05T20:49:19.859Z,99.90
2017-10-05T20:51:47.010Z,99.90
2017-10-05T20:54:13.353Z,99.90
2017-10-05T20:56:39.698Z,99.90
2017-10-05T20:59:09.027Z,99.90
2017-10-05T21:01:36.537Z,99.90
2017-10-05T21:04:02.874Z,99.90
2017-10-05T21:06:29.279Z,99.90
2017-10-05T21:08:56.001Z,99.90
2017-10-05T21:11:23.192Z,99.90
2017-10-05T21:13:49.564Z,99.90
2017-10-05T21:16:16.729Z,99.90
2017-10-05T21:18:43.777Z,99.90
2017-10-05T21:21:10.857Z,99.90
2017-10-05T21:23:37.169Z,99.90
2017-10-05T21:26:03.721Z,99.90
2017-10-05T21:28:30.126Z,99.90
2017-10-05T21:30:57.265Z,99.90
2017-10-05T21:33:24.310Z,99.90
2017-10-05T21:35:51.346Z,99.90
2017-10-05T21:38:17.691Z,99.90
2017-10-05T21:40:44.700Z,99.90
2017-10-05T21:43:11.007Z,99.90
2017-10-05T21:45:37.398Z,99.90
2017-10-05T21:48:04.568Z,99.90
2017-10-05T21:50:30.839Z,99.90
2017-10-05T21:52:57.163Z,99.80
2017-10-05T21:55:23.661Z,99.90
2017-10-05T21:57:49.968Z,99.90
2017-10-05T22:00:17.057Z,99.60
2017-10-05T22:02:43.438Z,99.60
2017-10-05T22:05:09.746Z,99.60
2017-10-05T22:07:36.158Z,99.90
2017-10-05T22:10:02.469Z,99.90
2017-10-05T22:12:28.790Z,99.90
2017-10-05T22:14:55.094Z,99.90
2017-10-05T22:17:21.397Z,99.90
2017-10-05T22:19:47.745Z,99.90
2017-10-05T22:22:14.077Z,99.80
2017-10-05T22:24:40.394Z,99.80
2017-10-05T22:27:06.714Z,99.90
2017-10-05T22:29:33.021Z,99.90
2017-10-05T22:31:59.596Z,99.90
2017-10-05T22:34:25.895Z,99.90
2017-10-05T22:36:52.202Z,99.90
2017-10-05T22:39:18.506Z,99.90
2017-10-05T22:41:45.602Z,99.90
2017-10-05T22:44:11.921Z,99.90
2017-10-05T22:46:38.299Z,99.90
2017-10-05T22:49:04.607Z,99.90
2017-10-05T22:51:30.913Z,99.90
2017-10-05T22:53:57.315Z,99.90
2017-10-05T22:56:24.349Z,99.90
2017-10-05T22:58:50.654Z,99.90
2017-10-05T23:01:16.978Z,99.90
2017-10-05T23:03:43.454Z,99.90
2017-10-05T23:06:10.498Z,99.90
2017-10-05T23:08:37.568Z,99.90
2017-10-05T23:11:03.898Z,99.90
2017-10-05T23:13:30.246Z,99.90
2017-10-05T23:15:56.552Z,99.90
2017-10-05T23:18:22.998Z,99.90
2017-10-05T23:20:49.400Z,99.90
2017-10-05T23:23:16.454Z,99.90
2017-10-05T23:25:43.501Z,99.90
2017-10-05T23:28:10.566Z,99.90
2017-10-05T23:30:36.863Z,99.90
2017-10-05T23:33:03.170Z,99.90
2017-10-05T23:35:29.518Z,99.90
2017-10-05T23:37:55.826Z,99.90
2017-10-05T23:40:22.130Z,99.90
2017-10-05T23:42:48.452Z,99.90
2017-10-05T23:45:14.786Z,99.90
2017-10-05T23:47:41.225Z,99.90
2017-10-05T23:50:07.513Z,99.90
2017-10-05T23:52:34.690Z,99.90
2017-10-05T23:55:00.981Z,99.90
2017-10-05T23:57:27.282Z,99.90
2017-10-05T23:59:53.585Z,99.90
